sensor_id;sensor_type;location;lat;lon;timestamp;P1;durP1;ratioP1;P2;durP2;ratioP2
41946;SDS011;27638;42.184;24.848;2023-11-21T00:01:39;9.05;;;4.32;;
41946;SDS011;27638;42.184;24.848;2023-11-21T00:04:05;5.80;;;3.15;;
41946;SDS011;27638;42.184;24.848;2023-11-21T00:06:32;6.93;;;3.20;;
41946;SDS011;27638;42.184;24.848;2023-11-21T00:08:58;4.78;;;3.13;;
41946;SDS011;27638;42.184;24.848;2023-11-21T00:11:23;5.72;;;3.70;;
41946;SDS011;27638;42.184;24.848;2023-11-21T00:13:50;7.32;;;4.43;;
41946;SDS011;27638;42.184;24.848;2023-11-21T00:16:15;7.45;;;4.55;;
41946;SDS011;27638;42.184;24.848;2023-11-21T00:18:41;8.68;;;3.97;;
41946;SDS011;27638;42.184;24.848;2023-11-21T00:21:07;4.95;;;3.65;;
41946;SDS011;27638;42.184;24.848;2023-11-21T00:23:34;5.18;;;3.38;;
41946;SDS011;27638;42.184;24.848;2023-11-21T00:26:00;4.57;;;3.13;;
41946;SDS011;27638;42.184;24.848;2023-11-21T00:28:26;7.55;;;3.25;;
41946;SDS011;27638;42.184;24.848;2023-11-21T00:30:51;6.65;;;3.45;;
41946;SDS011;27638;42.184;24.848;2023-11-21T00:33:17;5.50;;;3.42;;
41946;SDS011;27638;42.184;24.848;2023-11-21T00:35:42;4.80;;;3.63;;
41946;SDS011;27638;42.184;24.848;2023-11-21T00:38:08;6.95;;;3.90;;
41946;SDS011;27638;42.184;24.848;2023-11-21T00:40:33;5.18;;;3.30;;
41946;SDS011;27638;42.184;24.848;2023-11-21T00:42:59;6.40;;;3.70;;
41946;SDS011;27638;42.184;24.848;2023-11-21T00:45:24;8.32;;;3.53;;
41946;SDS011;27638;42.184;24.848;2023-11-21T00:47:50;5.22;;;3.75;;
41946;SDS011;27638;42.184;24.848;2023-11-21T00:50:16;4.78;;;3.47;;
41946;SDS011;27638;42.184;24.848;2023-11-21T00:52:41;7.00;;;4.05;;
41946;SDS011;27638;42.184;24.848;2023-11-21T00:55:07;11.25;;;6.63;;
41946;SDS011;27638;42.184;24.848;2023-11-21T00:57:33;9.15;;;5.30;;
41946;SDS011;27638;42.184;24.848;2023-11-21T00:59:59;9.43;;;5.10;;
41946;SDS011;27638;42.184;24.848;2023-11-21T01:02:25;6.00;;;3.80;;
41946;SDS011;27638;42.184;24.848;2023-11-21T01:04:50;6.00;;;3.83;;
41946;SDS011;27638;42.184;24.848;2023-11-21T01:07:16;5.97;;;3.28;;
41946;SDS011;27638;42.184;24.848;2023-11-21T01:09:42;5.47;;;3.10;;
41946;SDS011;27638;42.184;24.848;2023-11-21T01:12:09;6.35;;;3.38;;
41946;SDS011;27638;42.184;24.848;2023-11-21T01:14:34;6.47;;;3.60;;
41946;SDS011;27638;42.184;24.848;2023-11-21T01:17:01;4.53;;;2.72;;
41946;SDS011;27638;42.184;24.848;2023-11-21T01:19:29;4.88;;;3.35;;
41946;SDS011;27638;42.184;24.848;2023-11-21T01:21:54;6.95;;;3.38;;
41946;SDS011;27638;42.184;24.848;2023-11-21T01:24:19;4.40;;;3.03;;
41946;SDS011;27638;42.184;24.848;2023-11-21T01:26:45;4.03;;;3.17;;
41946;SDS011;27638;42.184;24.848;2023-11-21T01:29:11;4.20;;;3.10;;
41946;SDS011;27638;42.184;24.848;2023-11-21T01:31:37;5.07;;;3.13;;
41946;SDS011;27638;42.184;24.848;2023-11-21T01:34:02;5.60;;;2.92;;
41946;SDS011;27638;42.184;24.848;2023-11-21T01:36:31;4.22;;;2.85;;
41946;SDS011;27638;42.184;24.848;2023-11-21T01:38:57;4.38;;;3.00;;
41946;SDS011;27638;42.184;24.848;2023-11-21T01:41:24;5.35;;;2.72;;
41946;SDS011;27638;42.184;24.848;2023-11-21T01:43:52;4.65;;;2.60;;
41946;SDS011;27638;42.184;24.848;2023-11-21T01:46:18;4.28;;;2.75;;
41946;SDS011;27638;42.184;24.848;2023-11-21T01:48:45;3.95;;;2.70;;
41946;SDS011;27638;42.184;24.848;2023-11-21T01:51:11;5.07;;;2.65;;
41946;SDS011;27638;42.184;24.848;2023-11-21T01:53:36;3.72;;;2.42;;
41946;SDS011;27638;42.184;24.848;2023-11-21T01:56:02;5.07;;;2.35;;
41946;SDS011;27638;42.184;24.848;2023-11-21T01:58:28;4.95;;;3.13;;
41946;SDS011;27638;42.184;24.848;2023-11-21T02:00:57;4.32;;;2.70;;
41946;SDS011;27638;42.184;24.848;2023-11-21T02:03:23;5.07;;;3.15;;
41946;SDS011;27638;42.184;24.848;2023-11-21T02:05:48;4.78;;;2.97;;
41946;SDS011;27638;42.184;24.848;2023-11-21T02:08:14;3.05;;;2.58;;
41946;SDS011;27638;42.184;24.848;2023-11-21T02:10:39;5.00;;;2.65;;
41946;SDS011;27638;42.184;24.848;2023-11-21T02:13:05;3.42;;;2.90;;
41946;SDS011;27638;42.184;24.848;2023-11-21T02:15:31;4.95;;;2.75;;
41946;SDS011;27638;42.184;24.848;2023-11-21T02:17:56;4.70;;;3.17;;
41946;SDS011;27638;42.184;24.848;2023-11-21T02:20:23;6.47;;;2.70;;
41946;SDS011;27638;42.184;24.848;2023-11-21T02:25:20;7.30;;;3.42;;
41946;SDS011;27638;42.184;24.848;2023-11-21T02:27:46;7.18;;;4.28;;
41946;SDS011;27638;42.184;24.848;2023-11-21T02:30:13;7.28;;;4.07;;
41946;SDS011;27638;42.184;24.848;2023-11-21T02:32:39;4.70;;;2.88;;
41946;SDS011;27638;42.184;24.848;2023-11-21T02:35:07;5.55;;;3.50;;
41946;SDS011;27638;42.184;24.848;2023-11-21T02:37:33;5.95;;;3.50;;
41946;SDS011;27638;42.184;24.848;2023-11-21T02:40:00;5.47;;;3.00;;
41946;SDS011;27638;42.184;24.848;2023-11-21T02:42:29;4.55;;;3.00;;
41946;SDS011;27638;42.184;24.848;2023-11-21T02:44:54;6.03;;;3.78;;
41946;SDS011;27638;42.184;24.848;2023-11-21T02:47:20;4.65;;;2.90;;
41946;SDS011;27638;42.184;24.848;2023-11-21T02:49:45;3.38;;;2.78;;
41946;SDS011;27638;42.184;24.848;2023-11-21T02:52:10;4.55;;;3.10;;
41946;SDS011;27638;42.184;24.848;2023-11-21T02:54:36;5.43;;;2.78;;
41946;SDS011;27638;42.184;24.848;2023-11-21T02:57:01;6.43;;;3.40;;
41946;SDS011;27638;42.184;24.848;2023-11-21T02:59:27;5.55;;;3.58;;
41946;SDS011;27638;42.184;24.848;2023-11-21T03:01:53;6.35;;;2.70;;
41946;SDS011;27638;42.184;24.848;2023-11-21T03:04:18;4.18;;;2.75;;
41946;SDS011;27638;42.184;24.848;2023-11-21T03:06:44;4.05;;;2.85;;
41946;SDS011;27638;42.184;24.848;2023-11-21T03:09:10;6.05;;;3.00;;
41946;SDS011;27638;42.184;24.848;2023-11-21T03:11:38;5.10;;;3.15;;
41946;SDS011;27638;42.184;24.848;2023-11-21T03:14:04;7.70;;;2.80;;
41946;SDS011;27638;42.184;24.848;2023-11-21T03:16:30;5.10;;;2.88;;
41946;SDS011;27638;42.184;24.848;2023-11-21T03:18:56;5.28;;;2.58;;
41946;SDS011;27638;42.184;24.848;2023-11-21T03:21:22;4.88;;;2.65;;
41946;SDS011;27638;42.184;24.848;2023-11-21T03:23:47;5.82;;;3.08;;
41946;SDS011;27638;42.184;24.848;2023-11-21T03:26:13;3.92;;;2.78;;
41946;SDS011;27638;42.184;24.848;2023-11-21T03:28:38;5.03;;;2.90;;
41946;SDS011;27638;42.184;24.848;2023-11-21T03:31:04;5.70;;;3.00;;
41946;SDS011;27638;42.184;24.848;2023-11-21T03:33:31;6.13;;;3.67;;
41946;SDS011;27638;42.184;24.848;2023-11-21T03:35:57;5.25;;;3.08;;
41946;SDS011;27638;42.184;24.848;2023-11-21T03:38:23;3.40;;;2.50;;
41946;SDS011;27638;42.184;24.848;2023-11-21T03:40:48;4.85;;;2.83;;
41946;SDS011;27638;42.184;24.848;2023-11-21T03:43:15;6.18;;;2.60;;
41946;SDS011;27638;42.184;24.848;2023-11-21T03:45:41;9.52;;;3.90;;
41946;SDS011;27638;42.184;24.848;2023-11-21T03:48:06;5.78;;;3.03;;
41946;SDS011;27638;42.184;24.848;2023-11-21T03:50:32;4.32;;;2.70;;
41946;SDS011;27638;42.184;24.848;2023-11-21T03:52:58;8.68;;;3.92;;
41946;SDS011;27638;42.184;24.848;2023-11-21T03:55:23;7.03;;;3.20;;
41946;SDS011;27638;42.184;24.848;2023-11-21T03:57:50;5.85;;;3.65;;
41946;SDS011;27638;42.184;24.848;2023-11-21T04:00:16;6.20;;;3.25;;
41946;SDS011;27638;42.184;24.848;2023-11-21T04:02:42;9.10;;;3.50;;
41946;SDS011;27638;42.184;24.848;2023-11-21T04:05:08;7.55;;;3.72;;
41946;SDS011;27638;42.184;24.848;2023-11-21T04:07:34;6.63;;;3.35;;
41946;SDS011;27638;42.184;24.848;2023-11-21T04:10:00;9.77;;;3.67;;
41946;SDS011;27638;42.184;24.848;2023-11-21T04:12:25;6.20;;;3.40;;
41946;SDS011;27638;42.184;24.848;2023-11-21T04:14:51;5.53;;;2.55;;
41946;SDS011;27638;42.184;24.848;2023-11-21T04:17:19;6.05;;;3.17;;
41946;SDS011;27638;42.184;24.848;2023-11-21T04:19:45;6.32;;;3.30;;
41946;SDS011;27638;42.184;24.848;2023-11-21T04:22:11;7.80;;;3.15;;
41946;SDS011;27638;42.184;24.848;2023-11-21T04:24:36;5.53;;;2.90;;
41946;SDS011;27638;42.184;24.848;2023-11-21T04:27:02;6.55;;;3.60;;
41946;SDS011;27638;42.184;24.848;2023-11-21T04:29:28;8.13;;;3.58;;
41946;SDS011;27638;42.184;24.848;2023-11-21T04:31:53;9.20;;;4.25;;
41946;SDS011;27638;42.184;24.848;2023-11-21T04:34:19;21.17;;;10.73;;
41946;SDS011;27638;42.184;24.848;2023-11-21T04:36:44;115.13;;;45.85;;
41946;SDS011;27638;42.184;24.848;2023-11-21T04:39:10;25.48;;;12.23;;
41946;SDS011;27638;42.184;24.848;2023-11-21T04:41:36;17.27;;;7.20;;
41946;SDS011;27638;42.184;24.848;2023-11-21T04:44:04;12.48;;;6.45;;
41946;SDS011;27638;42.184;24.848;2023-11-21T04:46:30;7.95;;;4.90;;
41946;SDS011;27638;42.184;24.848;2023-11-21T04:48:56;12.50;;;4.45;;
41946;SDS011;27638;42.184;24.848;2023-11-21T04:51:22;9.93;;;3.70;;
41946;SDS011;27638;42.184;24.848;2023-11-21T04:53:47;7.35;;;3.78;;
41946;SDS011;27638;42.184;24.848;2023-11-21T04:56:13;6.38;;;3.40;;
41946;SDS011;27638;42.184;24.848;2023-11-21T04:58:38;9.05;;;4.18;;
41946;SDS011;27638;42.184;24.848;2023-11-21T05:01:05;7.28;;;4.40;;
41946;SDS011;27638;42.184;24.848;2023-11-21T05:03:32;10.45;;;4.18;;
41946;SDS011;27638;42.184;24.848;2023-11-21T05:05:57;7.63;;;3.72;;
41946;SDS011;27638;42.184;24.848;2023-11-21T05:08:22;27.92;;;10.57;;
41946;SDS011;27638;42.184;24.848;2023-11-21T05:10:48;57.47;;;19.40;;
41946;SDS011;27638;42.184;24.848;2023-11-21T05:13:17;12.65;;;5.25;;
41946;SDS011;27638;42.184;24.848;2023-11-21T05:15:43;12.48;;;5.70;;
41946;SDS011;27638;42.184;24.848;2023-11-21T05:18:09;21.45;;;7.80;;
41946;SDS011;27638;42.184;24.848;2023-11-21T05:20:35;7.22;;;3.95;;
41946;SDS011;27638;42.184;24.848;2023-11-21T05:23:01;10.00;;;4.65;;
41946;SDS011;27638;42.184;24.848;2023-11-21T05:25:26;5.15;;;3.58;;
41946;SDS011;27638;42.184;24.848;2023-11-21T05:27:52;5.18;;;4.07;;
41946;SDS011;27638;42.184;24.848;2023-11-21T05:30:18;7.72;;;5.15;;
41946;SDS011;27638;42.184;24.848;2023-11-21T05:32:44;10.15;;;4.22;;
41946;SDS011;27638;42.184;24.848;2023-11-21T05:35:09;8.38;;;4.18;;
41946;SDS011;27638;42.184;24.848;2023-11-21T05:37:40;6.68;;;4.10;;
41946;SDS011;27638;42.184;24.848;2023-11-21T05:40:06;6.70;;;3.83;;
41946;SDS011;27638;42.184;24.848;2023-11-21T05:42:32;5.20;;;3.85;;
41946;SDS011;27638;42.184;24.848;2023-11-21T05:44:58;5.32;;;3.38;;
41946;SDS011;27638;42.184;24.848;2023-11-21T05:47:45;9.48;;;3.90;;
41946;SDS011;27638;42.184;24.848;2023-11-21T05:50:12;8.93;;;4.15;;
41946;SDS011;27638;42.184;24.848;2023-11-21T05:52:45;4.95;;;3.70;;
41946;SDS011;27638;42.184;24.848;2023-11-21T05:55:12;8.70;;;3.70;;
41946;SDS011;27638;42.184;24.848;2023-11-21T05:57:38;5.82;;;4.40;;
41946;SDS011;27638;42.184;24.848;2023-11-21T06:00:05;9.23;;;3.95;;
41946;SDS011;27638;42.184;24.848;2023-11-21T06:02:40;11.07;;;4.50;;
41946;SDS011;27638;42.184;24.848;2023-11-21T06:05:07;13.20;;;5.40;;
41946;SDS011;27638;42.184;24.848;2023-11-21T06:07:33;15.57;;;8.13;;
41946;SDS011;27638;42.184;24.848;2023-11-21T06:09:59;16.77;;;8.25;;
41946;SDS011;27638;42.184;24.848;2023-11-21T06:12:24;17.50;;;8.13;;
41946;SDS011;27638;42.184;24.848;2023-11-21T06:14:50;16.33;;;6.57;;
41946;SDS011;27638;42.184;24.848;2023-11-21T06:17:16;15.27;;;7.22;;
41946;SDS011;27638;42.184;24.848;2023-11-21T06:19:42;17.98;;;6.15;;
41946;SDS011;27638;42.184;24.848;2023-11-21T06:22:10;18.52;;;7.10;;
41946;SDS011;27638;42.184;24.848;2023-11-21T06:24:36;22.75;;;7.60;;
41946;SDS011;27638;42.184;24.848;2023-11-21T06:27:03;16.42;;;6.85;;
41946;SDS011;27638;42.184;24.848;2023-11-21T06:29:29;16.65;;;7.72;;
41946;SDS011;27638;42.184;24.848;2023-11-21T06:31:55;20.60;;;8.93;;
41946;SDS011;27638;42.184;24.848;2023-11-21T06:34:20;25.65;;;11.50;;
41946;SDS011;27638;42.184;24.848;2023-11-21T06:36:46;35.92;;;14.93;;
41946;SDS011;27638;42.184;24.848;2023-11-21T06:39:12;24.45;;;14.07;;
41946;SDS011;27638;42.184;24.848;2023-11-21T06:41:40;77.07;;;49.22;;
41946;SDS011;27638;42.184;24.848;2023-11-21T06:44:05;29.38;;;19.80;;
41946;SDS011;27638;42.184;24.848;2023-11-21T06:46:31;34.63;;;28.77;;
41946;SDS011;27638;42.184;24.848;2023-11-21T06:48:56;29.55;;;19.98;;
41946;SDS011;27638;42.184;24.848;2023-11-21T06:51:21;33.40;;;15.40;;
41946;SDS011;27638;42.184;24.848;2023-11-21T06:53:47;12.20;;;7.10;;
41946;SDS011;27638;42.184;24.848;2023-11-21T06:56:16;12.32;;;4.60;;
41946;SDS011;27638;42.184;24.848;2023-11-21T06:58:44;10.00;;;4.60;;
41946;SDS011;27638;42.184;24.848;2023-11-21T07:01:11;8.35;;;5.05;;
41946;SDS011;27638;42.184;24.848;2023-11-21T07:03:36;9.00;;;4.95;;
41946;SDS011;27638;42.184;24.848;2023-11-21T07:06:02;34.05;;;7.95;;
41946;SDS011;27638;42.184;24.848;2023-11-21T07:08:28;10.60;;;5.22;;
41946;SDS011;27638;42.184;24.848;2023-11-21T07:10:54;10.50;;;5.28;;
41946;SDS011;27638;42.184;24.848;2023-11-21T07:13:19;9.43;;;6.18;;
41946;SDS011;27638;42.184;24.848;2023-11-21T07:15:44;7.10;;;4.70;;
41946;SDS011;27638;42.184;24.848;2023-11-21T07:18:10;8.48;;;5.07;;
41946;SDS011;27638;42.184;24.848;2023-11-21T07:20:36;5.97;;;3.58;;
41946;SDS011;27638;42.184;24.848;2023-11-21T07:23:02;7.10;;;4.13;;
41946;SDS011;27638;42.184;24.848;2023-11-21T07:25:28;6.85;;;4.00;;
41946;SDS011;27638;42.184;24.848;2023-11-21T07:27:54;6.25;;;3.83;;
41946;SDS011;27638;42.184;24.848;2023-11-21T07:30:20;6.40;;;3.60;;
41946;SDS011;27638;42.184;24.848;2023-11-21T07:32:47;8.93;;;4.22;;
41946;SDS011;27638;42.184;24.848;2023-11-21T07:35:13;8.93;;;6.85;;
41946;SDS011;27638;42.184;24.848;2023-11-21T07:37:38;5.80;;;3.10;;
41946;SDS011;27638;42.184;24.848;2023-11-21T07:40:04;7.18;;;4.40;;
41946;SDS011;27638;42.184;24.848;2023-11-21T07:42:30;7.38;;;4.07;;
41946;SDS011;27638;42.184;24.848;2023-11-21T07:44:56;7.50;;;5.25;;
41946;SDS011;27638;42.184;24.848;2023-11-21T07:47:21;7.88;;;5.30;;
41946;SDS011;27638;42.184;24.848;2023-11-21T07:49:47;5.93;;;4.13;;
41946;SDS011;27638;42.184;24.848;2023-11-21T07:52:13;7.65;;;3.80;;
41946;SDS011;27638;42.184;24.848;2023-11-21T07:54:41;5.10;;;3.55;;
41946;SDS011;27638;42.184;24.848;2023-11-21T07:57:06;4.90;;;3.75;;
41946;SDS011;27638;42.184;24.848;2023-11-21T07:59:32;6.57;;;4.20;;
41946;SDS011;27638;42.184;24.848;2023-11-21T08:01:58;6.32;;;4.28;;
41946;SDS011;27638;42.184;24.848;2023-11-21T08:04:23;8.90;;;4.30;;
41946;SDS011;27638;42.184;24.848;2023-11-21T08:06:48;8.15;;;4.30;;
41946;SDS011;27638;42.184;24.848;2023-11-21T08:09:14;6.72;;;4.50;;
41946;SDS011;27638;42.184;24.848;2023-11-21T08:11:42;8.52;;;4.57;;
41946;SDS011;27638;42.184;24.848;2023-11-21T08:14:08;9.52;;;4.80;;
41946;SDS011;27638;42.184;24.848;2023-11-21T08:16:33;8.73;;;4.53;;
41946;SDS011;27638;42.184;24.848;2023-11-21T08:18:58;11.52;;;4.30;;
41946;SDS011;27638;42.184;24.848;2023-11-21T08:21:24;8.00;;;4.13;;
41946;SDS011;27638;42.184;24.848;2023-11-21T08:23:49;6.53;;;4.43;;
41946;SDS011;27638;42.184;24.848;2023-11-21T08:26:19;8.07;;;4.63;;
41946;SDS011;27638;42.184;24.848;2023-11-21T08:28:45;7.50;;;4.53;;
41946;SDS011;27638;42.184;24.848;2023-11-21T08:31:12;6.68;;;4.43;;
41946;SDS011;27638;42.184;24.848;2023-11-21T08:33:38;7.10;;;4.60;;
41946;SDS011;27638;42.184;24.848;2023-11-21T08:36:06;6.30;;;4.13;;
41946;SDS011;27638;42.184;24.848;2023-11-21T08:38:33;11.95;;;5.63;;
41946;SDS011;27638;42.184;24.848;2023-11-21T08:41:02;6.25;;;4.20;;
41946;SDS011;27638;42.184;24.848;2023-11-21T08:43:32;5.60;;;4.50;;
41946;SDS011;27638;42.184;24.848;2023-11-21T08:45:59;8.90;;;5.53;;
41946;SDS011;27638;42.184;24.848;2023-11-21T08:48:24;9.77;;;5.53;;
41946;SDS011;27638;42.184;24.848;2023-11-21T08:50:50;7.60;;;4.80;;
41946;SDS011;27638;42.184;24.848;2023-11-21T08:53:16;11.50;;;8.18;;
41946;SDS011;27638;42.184;24.848;2023-11-21T08:55:41;12.02;;;7.18;;
41946;SDS011;27638;42.184;24.848;2023-11-21T08:58:09;7.10;;;4.85;;
41946;SDS011;27638;42.184;24.848;2023-11-21T09:00:34;5.10;;;4.05;;
41946;SDS011;27638;42.184;24.848;2023-11-21T09:03:01;7.13;;;4.28;;
41946;SDS011;27638;42.184;24.848;2023-11-21T09:05:28;5.43;;;3.30;;
41946;SDS011;27638;42.184;24.848;2023-11-21T09:07:53;3.88;;;2.85;;
41946;SDS011;27638;42.184;24.848;2023-11-21T09:10:19;4.75;;;3.80;;
41946;SDS011;27638;42.184;24.848;2023-11-21T09:12:45;7.45;;;4.45;;
41946;SDS011;27638;42.184;24.848;2023-11-21T09:15:11;8.13;;;4.60;;
41946;SDS011;27638;42.184;24.848;2023-11-21T09:17:36;5.75;;;4.38;;
41946;SDS011;27638;42.184;24.848;2023-11-21T09:20:02;8.07;;;4.95;;
41946;SDS011;27638;42.184;24.848;2023-11-21T09:22:30;7.60;;;5.15;;
41946;SDS011;27638;42.184;24.848;2023-11-21T09:24:56;8.05;;;4.97;;
41946;SDS011;27638;42.184;24.848;2023-11-21T09:27:22;21.20;;;15.18;;
41946;SDS011;27638;42.184;24.848;2023-11-21T09:29:48;8.82;;;6.63;;
41946;SDS011;27638;42.184;24.848;2023-11-21T09:32:14;10.73;;;7.82;;
41946;SDS011;27638;42.184;24.848;2023-11-21T09:34:43;9.25;;;4.70;;
41946;SDS011;27638;42.184;24.848;2023-11-21T09:37:09;12.95;;;5.25;;
41946;SDS011;27638;42.184;24.848;2023-11-21T09:39:34;9.18;;;4.60;;
41946;SDS011;27638;42.184;24.848;2023-11-21T09:42:13;7.45;;;4.10;;
41946;SDS011;27638;42.184;24.848;2023-11-21T09:44:44;6.50;;;4.20;;
41946;SDS011;27638;42.184;24.848;2023-11-21T09:47:14;9.15;;;3.92;;
41946;SDS011;27638;42.184;24.848;2023-11-21T09:49:42;10.10;;;4.38;;
41946;SDS011;27638;42.184;24.848;2023-11-21T09:52:11;6.38;;;3.55;;
41946;SDS011;27638;42.184;24.848;2023-11-21T09:54:43;7.82;;;4.40;;
41946;SDS011;27638;42.184;24.848;2023-11-21T09:57:09;6.15;;;4.90;;
41946;SDS011;27638;42.184;24.848;2023-11-21T09:59:35;11.32;;;10.13;;
41946;SDS011;27638;42.184;24.848;2023-11-21T10:02:03;9.55;;;6.13;;
41946;SDS011;27638;42.184;24.848;2023-11-21T10:04:29;9.48;;;6.80;;
41946;SDS011;27638;42.184;24.848;2023-11-21T10:06:54;6.45;;;5.55;;
41946;SDS011;27638;42.184;24.848;2023-11-21T10:09:20;6.97;;;3.63;;
41946;SDS011;27638;42.184;24.848;2023-11-21T10:11:46;5.13;;;4.25;;
41946;SDS011;27638;42.184;24.848;2023-11-21T10:14:14;9.43;;;4.20;;
41946;SDS011;27638;42.184;24.848;2023-11-21T10:16:43;13.32;;;5.95;;
41946;SDS011;27638;42.184;24.848;2023-11-21T10:19:12;9.27;;;4.25;;
41946;SDS011;27638;42.184;24.848;2023-11-21T10:21:38;17.23;;;5.15;;
41946;SDS011;27638;42.184;24.848;2023-11-21T10:24:04;4.25;;;3.70;;
41946;SDS011;27638;42.184;24.848;2023-11-21T10:26:31;5.75;;;3.67;;
41946;SDS011;27638;42.184;24.848;2023-11-21T10:28:59;7.70;;;4.00;;
41946;SDS011;27638;42.184;24.848;2023-11-21T10:31:29;9.90;;;5.53;;
41946;SDS011;27638;42.184;24.848;2023-11-21T10:33:57;14.77;;;8.05;;
41946;SDS011;27638;42.184;24.848;2023-11-21T10:36:42;29.65;;;14.90;;
41946;SDS011;27638;42.184;24.848;2023-11-21T10:39:08;21.33;;;10.15;;
41946;SDS011;27638;42.184;24.848;2023-11-21T10:41:34;14.48;;;7.88;;
41946;SDS011;27638;42.184;24.848;2023-11-21T10:44:00;13.93;;;6.55;;
41946;SDS011;27638;42.184;24.848;2023-11-21T10:46:29;8.45;;;4.75;;
41946;SDS011;27638;42.184;24.848;2023-11-21T10:48:55;8.05;;;3.45;;
41946;SDS011;27638;42.184;24.848;2023-11-21T10:51:21;7.63;;;4.03;;
41946;SDS011;27638;42.184;24.848;2023-11-21T10:53:47;11.25;;;4.95;;
41946;SDS011;27638;42.184;24.848;2023-11-21T10:56:15;17.25;;;5.82;;
41946;SDS011;27638;42.184;24.848;2023-11-21T10:58:45;6.30;;;3.67;;
41946;SDS011;27638;42.184;24.848;2023-11-21T11:01:11;6.78;;;3.63;;
41946;SDS011;27638;42.184;24.848;2023-11-21T11:03:39;10.18;;;3.80;;
41946;SDS011;27638;42.184;24.848;2023-11-21T11:06:06;5.32;;;2.90;;
41946;SDS011;27638;42.184;24.848;2023-11-21T11:08:39;4.97;;;2.70;;
41946;SDS011;27638;42.184;24.848;2023-11-21T11:11:06;5.15;;;3.13;;
41946;SDS011;27638;42.184;24.848;2023-11-21T11:13:32;6.47;;;3.10;;
41946;SDS011;27638;42.184;24.848;2023-11-21T11:15:58;5.40;;;3.28;;
41946;SDS011;27638;42.184;24.848;2023-11-21T11:18:29;8.48;;;3.63;;
41946;SDS011;27638;42.184;24.848;2023-11-21T11:20:54;5.95;;;3.80;;
41946;SDS011;27638;42.184;24.848;2023-11-21T11:23:46;3.97;;;3.17;;
41946;SDS011;27638;42.184;24.848;2023-11-21T11:29:14;3.72;;;2.15;;
41946;SDS011;27638;42.184;24.848;2023-11-21T11:32:21;4.05;;;2.28;;
41946;SDS011;27638;42.184;24.848;2023-11-21T11:35:19;15.15;;;3.45;;
41946;SDS011;27638;42.184;24.848;2023-11-21T11:37:47;6.63;;;2.60;;
41946;SDS011;27638;42.184;24.848;2023-11-21T11:40:12;6.10;;;3.55;;
41946;SDS011;27638;42.184;24.848;2023-11-21T11:42:37;6.80;;;3.30;;
41946;SDS011;27638;42.184;24.848;2023-11-21T11:45:17;3.50;;;2.42;;
41946;SDS011;27638;42.184;24.848;2023-11-21T11:47:44;7.72;;;4.22;;
41946;SDS011;27638;42.184;24.848;2023-11-21T11:50:12;5.55;;;3.40;;
41946;SDS011;27638;42.184;24.848;2023-11-21T11:52:41;7.47;;;4.60;;
41946;SDS011;27638;42.184;24.848;2023-11-21T11:55:11;6.38;;;4.00;;
41946;SDS011;27638;42.184;24.848;2023-11-21T11:57:44;9.07;;;4.13;;
41946;SDS011;27638;42.184;24.848;2023-11-21T12:02:57;7.15;;;4.10;;
41946;SDS011;27638;42.184;24.848;2023-11-21T12:05:27;138.00;;;21.83;;
41946;SDS011;27638;42.184;24.848;2023-11-21T12:07:53;11.90;;;4.85;;
41946;SDS011;27638;42.184;24.848;2023-11-21T12:10:21;7.85;;;3.80;;
41946;SDS011;27638;42.184;24.848;2023-11-21T12:12:49;6.75;;;3.92;;
41946;SDS011;27638;42.184;24.848;2023-11-21T12:15:19;5.60;;;4.45;;
41946;SDS011;27638;42.184;24.848;2023-11-21T12:17:46;6.65;;;4.50;;
41946;SDS011;27638;42.184;24.848;2023-11-21T12:20:12;7.32;;;4.95;;
41946;SDS011;27638;42.184;24.848;2023-11-21T12:22:48;15.43;;;7.43;;
41946;SDS011;27638;42.184;24.848;2023-11-21T12:25:24;13.75;;;7.47;;
41946;SDS011;27638;42.184;24.848;2023-11-21T12:28:00;18.52;;;10.63;;
41946;SDS011;27638;42.184;24.848;2023-11-21T12:30:26;26.48;;;13.68;;
41946;SDS011;27638;42.184;24.848;2023-11-21T12:32:56;24.30;;;13.82;;
41946;SDS011;27638;42.184;24.848;2023-11-21T12:35:23;26.17;;;14.35;;
41946;SDS011;27638;42.184;24.848;2023-11-21T12:37:51;30.75;;;16.17;;
41946;SDS011;27638;42.184;24.848;2023-11-21T12:40:17;30.75;;;16.48;;
41946;SDS011;27638;42.184;24.848;2023-11-21T12:42:44;68.80;;;21.00;;
41946;SDS011;27638;42.184;24.848;2023-11-21T12:47:45;34.80;;;19.45;;
41946;SDS011;27638;42.184;24.848;2023-11-21T12:50:21;34.80;;;20.15;;
41946;SDS011;27638;42.184;24.848;2023-11-21T12:52:54;35.08;;;21.27;;
41946;SDS011;27638;42.184;24.848;2023-11-21T12:55:23;45.75;;;22.02;;
41946;SDS011;27638;42.184;24.848;2023-11-21T12:57:50;42.97;;;24.08;;
41946;SDS011;27638;42.184;24.848;2023-11-21T13:00:17;42.88;;;21.95;;
41946;SDS011;27638;42.184;24.848;2023-11-21T13:02:53;20.05;;;11.55;;
41946;SDS011;27638;42.184;24.848;2023-11-21T13:05:29;15.65;;;9.00;;
41946;SDS011;27638;42.184;24.848;2023-11-21T13:10:28;10.73;;;6.65;;
41946;SDS011;27638;42.184;24.848;2023-11-21T13:12:56;10.70;;;6.95;;
41946;SDS011;27638;42.184;24.848;2023-11-21T13:15:26;10.90;;;6.07;;
41946;SDS011;27638;42.184;24.848;2023-11-21T13:17:52;12.45;;;5.80;;
41946;SDS011;27638;42.184;24.848;2023-11-21T13:20:22;8.13;;;5.88;;
41946;SDS011;27638;42.184;24.848;2023-11-21T13:22:50;12.65;;;7.40;;
41946;SDS011;27638;42.184;24.848;2023-11-21T13:25:22;11.07;;;6.32;;
41946;SDS011;27638;42.184;24.848;2023-11-21T13:27:53;11.00;;;5.60;;
41946;SDS011;27638;42.184;24.848;2023-11-21T13:30:21;9.25;;;5.18;;
41946;SDS011;27638;42.184;24.848;2023-11-21T13:32:58;8.50;;;5.68;;
41946;SDS011;27638;42.184;24.848;2023-11-21T13:35:31;19.40;;;5.68;;
41946;SDS011;27638;42.184;24.848;2023-11-21T13:38:07;8.52;;;5.70;;
41946;SDS011;27638;42.184;24.848;2023-11-21T13:40:34;9.25;;;4.30;;
41946;SDS011;27638;42.184;24.848;2023-11-21T13:43:07;23.77;;;8.25;;
41946;SDS011;27638;42.184;24.848;2023-11-21T13:45:35;13.20;;;5.53;;
41946;SDS011;27638;42.184;24.848;2023-11-21T13:48:02;8.52;;;5.18;;
41946;SDS011;27638;42.184;24.848;2023-11-21T13:50:27;10.52;;;5.32;;
41946;SDS011;27638;42.184;24.848;2023-11-21T13:53:00;15.38;;;5.03;;
41946;SDS011;27638;42.184;24.848;2023-11-21T13:55:44;14.68;;;5.68;;
41946;SDS011;27638;42.184;24.848;2023-11-21T13:58:10;11.25;;;5.78;;
41946;SDS011;27638;42.184;24.848;2023-11-21T14:00:41;9.57;;;4.85;;
41946;SDS011;27638;42.184;24.848;2023-11-21T14:03:10;26.13;;;10.55;;
41946;SDS011;27638;42.184;24.848;2023-11-21T14:05:47;14.45;;;5.38;;
41946;SDS011;27638;42.184;24.848;2023-11-21T14:08:19;10.35;;;5.57;;
41946;SDS011;27638;42.184;24.848;2023-11-21T14:10:50;13.23;;;5.82;;
41946;SDS011;27638;42.184;24.848;2023-11-21T14:13:20;15.45;;;6.82;;
41946;SDS011;27638;42.184;24.848;2023-11-21T14:15:48;9.85;;;5.03;;
41946;SDS011;27638;42.184;24.848;2023-11-21T14:18:16;8.93;;;5.07;;
41946;SDS011;27638;42.184;24.848;2023-11-21T14:20:42;14.07;;;6.25;;
41946;SDS011;27638;42.184;24.848;2023-11-21T14:23:09;13.20;;;6.00;;
41946;SDS011;27638;42.184;24.848;2023-11-21T14:25:35;13.45;;;7.68;;
41946;SDS011;27638;42.184;24.848;2023-11-21T14:28:04;15.55;;;8.48;;
41946;SDS011;27638;42.184;24.848;2023-11-21T14:30:31;29.05;;;13.00;;
41946;SDS011;27638;42.184;24.848;2023-11-21T14:32:58;40.08;;;18.05;;
41946;SDS011;27638;42.184;24.848;2023-11-21T14:35:24;33.55;;;16.90;;
41946;SDS011;27638;42.184;24.848;2023-11-21T14:37:49;28.80;;;16.17;;
41946;SDS011;27638;42.184;24.848;2023-11-21T14:40:15;31.92;;;15.93;;
41946;SDS011;27638;42.184;24.848;2023-11-21T14:42:41;34.35;;;19.27;;